DLH175 VRMM-EDDF
Flight info
| Callsign | DLH175 |
|---|---|
| Flight time | N/A |
| Altitude | 28000 |
| Route | MUNUT1A MUNUT R329 POMAN P570 OTABI/N0515F290 A474 BBB G208 APANO/N0513F300 G208 KE B210 NH G326 REKOR/N0511F310 G326 ZB L750 RANAH/N0499F320 A846 ABDAN A909 RODAR N644 ADEKI DCT BADIR DCT LAGAS DCT NOLGA UG261 TBN UM11 CRM UL746 GOKPA/N0484F340 UL746 ODERO DCT OPT DCT ULMIN DCT DEGET DCT ABETI DCT PEROL DCT SUBEN DCT AKINI T161 DEBHI DEBHI1D |
| Aircraft | B77L/H-SDE1E2E3FGHIJ2J3J4J5M1RWXY/LB1D1 |
Departure
| Time | 2026-05-01 12:34 |
|---|---|
| Airport | Velana International Airport (VRMM) |
Arrival
| Time | N/A |
|---|---|
| Airport | Frankfurt Main Airport (EDDF) |
| Time | Latitude | Longitude | Altitude | Speed | Heading |
|---|---|---|---|---|---|
| 2026-05-01 12:15 | 4.18545 | 73.53381 | 24 ft | 0 kts | 90° |
| 2026-05-01 12:24 | 4.18545 | 73.53373 | 24 ft | 2 kts | 90° |
| 2026-05-01 12:24 | 4.18545 | 73.53357 | 24 ft | 2 kts | 92° |
| 2026-05-01 12:25 | 4.18546 | 73.53341 | 26 ft | 2 kts | 96° |
| 2026-05-01 12:25 | 4.18552 | 73.53309 | 25 ft | 2 kts | 112° |
| 2026-05-01 12:25 | 4.18561 | 73.53295 | 25 ft | 2 kts | 146° |
| 2026-05-01 12:26 | 4.18574 | 73.53290 | 26 ft | 1 kts | 177° |
| 2026-05-01 12:26 | 4.18578 | 73.53290 | 26 ft | 0 kts | 179° |
| 2026-05-01 12:29 | 4.18555 | 73.53290 | 25 ft | 10 kts | 179° |
| 2026-05-01 12:29 | 4.18479 | 73.53235 | 20 ft | 8 kts | 270° |
| 2026-05-01 12:30 | 4.18479 | 73.53232 | 20 ft | 0 kts | 270° |
| 2026-05-01 12:30 | 4.18479 | 73.53218 | 20 ft | 9 kts | 270° |
| 2026-05-01 12:31 | 4.18478 | 73.53146 | 20 ft | 10 kts | 268° |
| 2026-05-01 12:31 | 4.18511 | 73.53098 | 21 ft | 9 kts | 358° |
| 2026-05-01 12:31 | 4.18516 | 73.53099 | 21 ft | 0 kts | 1° |
| 2026-05-01 12:33 | 4.18537 | 73.53099 | 21 ft | 13 kts | 2° |
| 2026-05-01 12:33 | 4.18886 | 73.53102 | 26 ft | 88 kts | 0° |
| 2026-05-01 12:33 | 4.19749 | 73.53103 | 18 ft | 158 kts | 0° |
| 2026-05-01 12:33 | 4.21029 | 73.53101 | 218 ft | 195 kts | 358° |
| 2026-05-01 12:34 | 4.22411 | 73.53112 | 770 ft | 202 kts | 0° |
| 2026-05-01 12:34 | 4.23797 | 73.53150 | 1553 ft | 194 kts | 0° |
| 2026-05-01 12:34 | 4.25169 | 73.53185 | 2031 ft | 203 kts | 358° |
| 2026-05-01 12:34 | 4.26562 | 73.53169 | 2142 ft | 215 kts | 357° |
| 2026-05-01 12:35 | 4.28071 | 73.53146 | 2316 ft | 228 kts | 357° |
| 2026-05-01 12:35 | 4.29683 | 73.53126 | 2623 ft | 236 kts | 358° |
| 2026-05-01 12:35 | 4.31356 | 73.53111 | 2932 ft | 246 kts | 358° |
| 2026-05-01 12:35 | 4.33086 | 73.53101 | 3416 ft | 250 kts | 358° |
| 2026-05-01 12:36 | 4.34842 | 73.53094 | 3924 ft | 254 kts | 359° |
| 2026-05-01 12:36 | 4.36625 | 73.53089 | 4411 ft | 258 kts | 359° |
| 2026-05-01 12:36 | 4.38431 | 73.53086 | 4933 ft | 260 kts | 359° |
| 2026-05-01 12:36 | 4.40224 | 73.53082 | 5443 ft | 263 kts | 359° |
| 2026-05-01 12:37 | 4.42124 | 73.53073 | 5709 ft | 276 kts | 357° |
| 2026-05-01 12:37 | 4.44056 | 73.52840 | 6098 ft | 284 kts | 349° |
| 2026-05-01 12:37 | 4.45979 | 73.52447 | 6562 ft | 288 kts | 348° |
| 2026-05-01 12:37 | 4.47951 | 73.52022 | 7043 ft | 292 kts | 348° |
| 2026-05-01 12:38 | 4.49936 | 73.51598 | 7574 ft | 294 kts | 348° |
| 2026-05-01 12:38 | 4.51945 | 73.51178 | 8074 ft | 297 kts | 349° |
| 2026-05-01 12:38 | 4.53992 | 73.50762 | 8538 ft | 302 kts | 349° |
| 2026-05-01 12:38 | 4.56068 | 73.50348 | 9053 ft | 305 kts | 350° |
| 2026-05-01 12:39 | 4.58159 | 73.49936 | 9582 ft | 308 kts | 349° |
| 2026-05-01 12:39 | 4.60274 | 73.49520 | 10060 ft | 311 kts | 349° |
| 2026-05-01 12:39 | 4.62427 | 73.49096 | 10329 ft | 323 kts | 349° |
| 2026-05-01 12:39 | 4.64696 | 73.48650 | 10446 ft | 340 kts | 350° |
| 2026-05-01 12:40 | 4.67040 | 73.48190 | 10584 ft | 357 kts | 350° |
| 2026-05-01 12:40 | 4.69544 | 73.47699 | 10718 ft | 373 kts | 349° |
| 2026-05-01 12:40 | 4.72127 | 73.47192 | 11034 ft | 383 kts | 349° |
| 2026-05-01 12:40 | 4.74770 | 73.46672 | 11449 ft | 389 kts | 349° |
| 2026-05-01 12:41 | 4.77440 | 73.46147 | 11987 ft | 393 kts | 350° |
| 2026-05-01 12:41 | 4.80124 | 73.45619 | 12549 ft | 395 kts | 350° |
| 2026-05-01 12:41 | 4.82837 | 73.45085 | 13102 ft | 397 kts | 350° |
| 2026-05-01 12:41 | 4.85563 | 73.44550 | 13608 ft | 401 kts | 349° |
| 2026-05-01 12:42 | 4.88316 | 73.44009 | 14057 ft | 404 kts | 350° |
| 2026-05-01 12:42 | 4.91090 | 73.43465 | 14518 ft | 407 kts | 350° |
| 2026-05-01 12:42 | 4.93877 | 73.42919 | 14997 ft | 409 kts | 350° |
| 2026-05-01 12:42 | 4.96679 | 73.42369 | 15444 ft | 412 kts | 350° |
| 2026-05-01 12:43 | 4.99510 | 73.41813 | 15887 ft | 415 kts | 349° |
| 2026-05-01 12:43 | 5.02207 | 73.41283 | 16301 ft | 417 kts | 350° |
| 2026-05-01 12:43 | 5.05047 | 73.40803 | 16719 ft | 420 kts | 352° |
| 2026-05-01 12:43 | 5.07949 | 73.40392 | 17155 ft | 423 kts | 353° |
| 2026-05-01 12:44 | 5.10870 | 73.40005 | 17580 ft | 425 kts | 353° |
| 2026-05-01 12:44 | 5.13812 | 73.39618 | 18005 ft | 428 kts | 353° |
| 2026-05-01 12:44 | 5.19753 | 73.38813 | 18722 ft | 433 kts | 353° |
| 2026-05-01 12:45 | 5.25760 | 73.37976 | 19432 ft | 438 kts | 353° |
| 2026-05-01 12:45 | 5.28787 | 73.37551 | 19796 ft | 441 kts | 353° |
| 2026-05-01 12:45 | 5.31838 | 73.37123 | 20138 ft | 443 kts | 353° |
| 2026-05-01 12:46 | 5.34905 | 73.36693 | 20476 ft | 446 kts | 353° |
| 2026-05-01 12:46 | 5.37986 | 73.36261 | 20807 ft | 448 kts | 353° |
| 2026-05-01 12:46 | 5.41085 | 73.35826 | 21140 ft | 450 kts | 353° |
| 2026-05-01 12:46 | 5.44205 | 73.35390 | 21466 ft | 453 kts | 353° |
| 2026-05-01 12:47 | 5.47337 | 73.34951 | 21783 ft | 456 kts | 353° |
| 2026-05-01 12:47 | 5.50481 | 73.34510 | 22113 ft | 457 kts | 353° |
| 2026-05-01 12:47 | 5.53602 | 73.34071 | 22438 ft | 459 kts | 353° |
| 2026-05-01 12:47 | 5.56776 | 73.33618 | 22743 ft | 462 kts | 353° |
| 2026-05-01 12:48 | 5.59966 | 73.33161 | 23047 ft | 464 kts | 353° |
| 2026-05-01 12:48 | 5.63174 | 73.32702 | 23336 ft | 467 kts | 353° |
| 2026-05-01 12:48 | 5.66398 | 73.32240 | 23598 ft | 469 kts | 353° |
| 2026-05-01 12:48 | 5.69640 | 73.31777 | 23860 ft | 470 kts | 353° |
| 2026-05-01 12:49 | 5.72888 | 73.31314 | 24124 ft | 472 kts | 353° |
| 2026-05-01 12:49 | 5.76157 | 73.30847 | 24391 ft | 473 kts | 353° |
| 2026-05-01 12:49 | 5.79416 | 73.30383 | 24640 ft | 475 kts | 353° |
| 2026-05-01 12:49 | 5.82695 | 73.29916 | 24875 ft | 476 kts | 353° |
| 2026-05-01 12:50 | 5.85986 | 73.29447 | 25115 ft | 478 kts | 352° |
| 2026-05-01 12:50 | 5.89285 | 73.28976 | 25352 ft | 480 kts | 352° |
| 2026-05-01 12:50 | 5.92562 | 73.28509 | 25587 ft | 481 kts | 352° |
| 2026-05-01 12:50 | 5.95883 | 73.28036 | 25821 ft | 483 kts | 352° |
| 2026-05-01 12:51 | 5.99224 | 73.27559 | 26053 ft | 484 kts | 352° |
| 2026-05-01 12:51 | 6.02562 | 73.27083 | 26284 ft | 486 kts | 352° |
| 2026-05-01 12:51 | 6.09281 | 73.26124 | 26721 ft | 489 kts | 352° |
| 2026-05-01 12:52 | 6.12657 | 73.25642 | 26943 ft | 490 kts | 352° |
| 2026-05-01 12:52 | 6.19439 | 73.24674 | 27363 ft | 493 kts | 352° |
| 2026-05-01 12:52 | 6.22849 | 73.24188 | 27530 ft | 496 kts | 352° |
| 2026-05-01 12:53 | 6.29692 | 73.23211 | 27781 ft | 501 kts | 352° |
| 2026-05-01 12:53 | 6.33140 | 73.22718 | 27831 ft | 501 kts | 352° |
| 2026-05-01 12:53 | 6.36605 | 73.22224 | 27868 ft | 504 kts | 352° |
| 2026-05-01 12:54 | 6.40084 | 73.21727 | 27863 ft | 507 kts | 352° |
| 2026-05-01 12:54 | 6.47122 | 73.20722 | 27864 ft | 513 kts | 352° |
| 2026-05-01 12:54 | 6.50664 | 73.20216 | 27860 ft | 516 kts | 352° |
| 2026-05-01 12:55 | 6.57801 | 73.19197 | 27843 ft | 519 kts | 352° |
| 2026-05-01 12:55 | 6.61374 | 73.18687 | 27836 ft | 519 kts | 352° |
| 2026-05-01 12:55 | 6.64929 | 73.18180 | 27832 ft | 520 kts | 352° |
| 2026-05-01 12:56 | 6.68517 | 73.17667 | 27831 ft | 520 kts | 352° |
| 2026-05-01 12:56 | 6.72106 | 73.17152 | 27830 ft | 521 kts | 352° |
| 2026-05-01 12:56 | 6.75673 | 73.16489 | 27824 ft | 521 kts | 347° |
| 2026-05-01 12:56 | 6.79156 | 73.15487 | 27828 ft | 520 kts | 342° |
| 2026-05-01 12:57 | 6.82603 | 73.14372 | 27831 ft | 519 kts | 342° |
| 2026-05-01 12:57 | 6.89476 | 73.12127 | 27861 ft | 519 kts | 342° |
| 2026-05-01 12:57 | 6.92910 | 73.11023 | 27863 ft | 518 kts | 342° |
| 2026-05-01 12:58 | 6.96344 | 73.09930 | 27864 ft | 518 kts | 342° |
| 2026-05-01 12:58 | 6.99743 | 73.08856 | 27863 ft | 517 kts | 342° |
| 2026-05-01 12:58 | 7.03169 | 73.07778 | 27863 ft | 517 kts | 342° |
| 2026-05-01 12:59 | 7.10040 | 73.05615 | 27864 ft | 517 kts | 343° |
| 2026-05-01 12:59 | 7.13469 | 73.04534 | 27866 ft | 517 kts | 342° |
| 2026-05-01 12:59 | 7.20336 | 73.02367 | 27864 ft | 517 kts | 342° |
| 2026-05-01 13:00 | 7.26045 | 73.00564 | 27870 ft | 517 kts | 342° |
| 2026-05-01 13:00 | 7.29349 | 72.99521 | 27869 ft | 517 kts | 342° |
| 2026-05-01 13:01 | 7.36227 | 72.97348 | 27869 ft | 518 kts | 342° |
| 2026-05-01 13:01 | 7.39665 | 72.96263 | 27870 ft | 518 kts | 342° |
| 2026-05-01 13:01 | 7.47683 | 72.93730 | 27865 ft | 518 kts | 343° |
| 2026-05-01 13:02 | 7.50013 | 72.93015 | 27866 ft | 518 kts | 344° |
| 2026-05-01 13:07 | 8.24013 | 72.77139 | 27871 ft | 519 kts | 348° |
| 2026-05-01 13:07 | 8.27504 | 72.76390 | 27868 ft | 519 kts | 348° |
| 2026-05-01 13:07 | 8.31031 | 72.75634 | 27873 ft | 519 kts | 348° |
| 2026-05-01 13:08 | 8.34559 | 72.74876 | 27873 ft | 518 kts | 348° |
| 2026-05-01 13:08 | 8.38097 | 72.74117 | 27867 ft | 518 kts | 348° |
| 2026-05-01 13:08 | 8.41631 | 72.73358 | 27873 ft | 518 kts | 348° |
| 2026-05-01 13:08 | 8.45163 | 72.72599 | 27878 ft | 518 kts | 348° |
| 2026-05-01 13:09 | 8.48687 | 72.71842 | 27875 ft | 518 kts | 348° |
| 2026-05-01 13:09 | 8.52223 | 72.71083 | 27873 ft | 518 kts | 348° |
| 2026-05-01 13:09 | 8.55702 | 72.70335 | 27880 ft | 517 kts | 348° |
| 2026-05-01 13:09 | 8.59222 | 72.69579 | 27877 ft | 518 kts | 348° |
| 2026-05-01 13:10 | 8.62743 | 72.68822 | 27874 ft | 518 kts | 348° |
| 2026-05-01 13:10 | 8.66267 | 72.68064 | 27877 ft | 518 kts | 348° |
| 2026-05-01 13:10 | 8.69788 | 72.67307 | 27881 ft | 518 kts | 348° |
| 2026-05-01 13:10 | 8.73322 | 72.66547 | 27876 ft | 518 kts | 348° |
| 2026-05-01 13:11 | 8.76853 | 72.65787 | 27873 ft | 518 kts | 348° |
| 2026-05-01 13:11 | 8.80381 | 72.65028 | 27877 ft | 518 kts | 348° |
| 2026-05-01 13:11 | 8.83905 | 72.64270 | 27873 ft | 518 kts | 348° |
| 2026-05-01 13:11 | 8.87433 | 72.63510 | 27870 ft | 518 kts | 348° |
| 2026-05-01 13:12 | 8.90913 | 72.62761 | 27872 ft | 517 kts | 348° |
| 2026-05-01 13:12 | 8.94440 | 72.62001 | 27872 ft | 517 kts | 348° |
| 2026-05-01 13:12 | 8.97979 | 72.61239 | 27871 ft | 517 kts | 348° |
| 2026-05-01 13:12 | 9.01486 | 72.60484 | 27875 ft | 517 kts | 348° |
| 2026-05-01 13:13 | 9.04973 | 72.59733 | 27883 ft | 517 kts | 348° |
| 2026-05-01 13:13 | 9.08489 | 72.58975 | 27880 ft | 516 kts | 348° |
| 2026-05-01 13:13 | 9.12001 | 72.58218 | 27874 ft | 516 kts | 348° |
| 2026-05-01 13:13 | 9.15511 | 72.57461 | 27874 ft | 515 kts | 348° |
| 2026-05-01 13:14 | 9.19017 | 72.56705 | 27875 ft | 515 kts | 348° |
| 2026-05-01 13:14 | 9.22523 | 72.55949 | 27874 ft | 514 kts | 348° |
| 2026-05-01 13:14 | 9.26028 | 72.55193 | 27877 ft | 514 kts | 348° |
| 2026-05-01 13:14 | 9.29523 | 72.54439 | 27878 ft | 513 kts | 348° |
| 2026-05-01 13:15 | 9.33032 | 72.53681 | 27876 ft | 513 kts | 348° |
| 2026-05-01 13:15 | 9.36483 | 72.52937 | 27877 ft | 513 kts | 348° |
| 2026-05-01 13:15 | 9.39977 | 72.52182 | 27879 ft | 513 kts | 348° |
| 2026-05-01 13:15 | 9.43472 | 72.51428 | 27878 ft | 513 kts | 348° |
| 2026-05-01 13:16 | 9.46983 | 72.50669 | 27875 ft | 513 kts | 347° |
| 2026-05-01 13:16 | 9.50475 | 72.49910 | 27876 ft | 514 kts | 347° |
| 2026-05-01 13:16 | 9.53375 | 72.49278 | 27879 ft | 514 kts | 347° |
| 2026-05-01 13:17 | 9.63850 | 72.46941 | 27876 ft | 514 kts | 343° |
| 2026-05-01 13:17 | 9.67075 | 72.45771 | 27874 ft | 514 kts | 335° |
| 2026-05-01 13:18 | 9.72708 | 72.42216 | 27882 ft | 513 kts | 319° |
| 2026-05-01 13:18 | 9.75265 | 72.39695 | 27881 ft | 513 kts | 310° |
| 2026-05-01 13:18 | 9.77421 | 72.36817 | 27881 ft | 512 kts | 302° |
| 2026-05-01 13:18 | 9.79131 | 72.33649 | 27881 ft | 512 kts | 294° |
| 2026-05-01 13:19 | 9.80459 | 72.30313 | 27869 ft | 510 kts | 285° |
| 2026-05-01 13:19 | 9.80929 | 72.26764 | 27921 ft | 510 kts | 267° |
| 2026-05-01 13:19 | 9.80049 | 72.19618 | 28189 ft | 511 kts | 261° |
| 2026-05-01 13:20 | 9.79590 | 72.16044 | 28378 ft | 511 kts | 263° |
| 2026-05-01 13:20 | 9.79268 | 72.12450 | 28614 ft | 511 kts | 265° |
| 2026-05-01 13:20 | 9.79076 | 72.08847 | 28823 ft | 510 kts | 267° |
| 2026-05-01 13:21 | 9.78926 | 72.01701 | 29225 ft | 510 kts | 269° |
| 2026-05-01 13:21 | 9.78898 | 71.98267 | 29438 ft | 510 kts | 269° |
| 2026-05-01 13:21 | 9.78869 | 71.94660 | 29643 ft | 510 kts | 269° |
| 2026-05-01 13:21 | 9.78833 | 71.91070 | 29787 ft | 510 kts | 269° |
| 2026-05-01 13:22 | 9.78736 | 71.83815 | 29878 ft | 510 kts | 268° |
| 2026-05-01 13:22 | 9.78619 | 71.76619 | 29877 ft | 510 kts | 268° |
| 2026-05-01 13:23 | 9.79400 | 71.69533 | 29884 ft | 508 kts | 289° |
| 2026-05-01 13:23 | 9.82827 | 71.63300 | 29876 ft | 508 kts | 308° |
| 2026-05-01 13:24 | 9.87236 | 71.57731 | 29881 ft | 510 kts | 308° |
| 2026-05-01 13:25 | 9.93859 | 71.49216 | 29883 ft | 514 kts | 307° |
| 2026-05-01 13:25 | 9.98251 | 71.43456 | 29887 ft | 516 kts | 307° |
| 2026-05-01 13:26 | 10.02638 | 71.37677 | 29888 ft | 517 kts | 307° |
| 2026-05-01 13:26 | 10.06923 | 71.32035 | 29878 ft | 516 kts | 307° |
| 2026-05-01 13:27 | 10.11278 | 71.26301 | 29873 ft | 513 kts | 307° |
| 2026-05-01 13:27 | 10.17445 | 71.18182 | 29878 ft | 511 kts | 307° |
| 2026-05-01 13:28 | 10.23937 | 71.09629 | 29888 ft | 510 kts | 307° |
| 2026-05-01 13:29 | 10.32504 | 70.98331 | 29887 ft | 511 kts | 307° |
| 2026-05-01 13:31 | 10.45517 | 70.81149 | 29883 ft | 513 kts | 307° |
| 2026-05-01 13:32 | 10.56392 | 70.66768 | 29885 ft | 513 kts | 307° |
| 2026-05-01 13:33 | 10.67230 | 70.52420 | 29889 ft | 512 kts | 307° |
| 2026-05-01 13:34 | 10.75887 | 70.40944 | 29883 ft | 510 kts | 307° |
| 2026-05-01 13:35 | 10.82352 | 70.32365 | 29884 ft | 508 kts | 307° |
| 2026-05-01 13:36 | 10.88801 | 70.23802 | 29889 ft | 508 kts | 306° |
| 2026-05-01 13:36 | 10.95217 | 70.15274 | 29888 ft | 508 kts | 307° |
| 2026-05-01 13:37 | 10.99521 | 70.09552 | 29890 ft | 509 kts | 306° |
| 2026-05-01 13:37 | 11.03821 | 70.03831 | 29889 ft | 510 kts | 306° |
| 2026-05-01 13:38 | 11.10218 | 69.95313 | 29888 ft | 511 kts | 306° |
| 2026-05-01 13:39 | 11.14533 | 69.89564 | 29890 ft | 511 kts | 306° |
| 2026-05-01 13:39 | 11.18850 | 69.83809 | 29886 ft | 511 kts | 307° |
| 2026-05-01 13:40 | 11.23145 | 69.78081 | 29887 ft | 511 kts | 306° |
| 2026-05-01 13:40 | 11.27461 | 69.72321 | 29892 ft | 511 kts | 306° |
| 2026-05-01 13:41 | 11.31782 | 69.66550 | 29889 ft | 511 kts | 306° |
| 2026-05-01 13:41 | 11.36094 | 69.60789 | 29889 ft | 511 kts | 306° |
| 2026-05-01 13:42 | 11.40397 | 69.55038 | 29889 ft | 510 kts | 306° |
| 2026-05-01 13:42 | 11.44696 | 69.49287 | 29890 ft | 510 kts | 306° |
| 2026-05-01 13:43 | 11.48996 | 69.43533 | 29890 ft | 509 kts | 306° |
| 2026-05-01 13:43 | 11.53259 | 69.37824 | 29891 ft | 509 kts | 306° |
| 2026-05-01 13:44 | 11.57548 | 69.32077 | 29892 ft | 509 kts | 306° |
| 2026-05-01 13:44 | 11.61844 | 69.26318 | 29895 ft | 509 kts | 306° |
| 2026-05-01 13:45 | 11.66112 | 69.20593 | 29893 ft | 508 kts | 306° |
| 2026-05-01 13:45 | 11.70389 | 69.14854 | 29890 ft | 506 kts | 306° |
| 2026-05-01 13:46 | 11.74614 | 69.09179 | 29883 ft | 504 kts | 306° |
| 2026-05-01 13:46 | 11.78865 | 69.03467 | 29889 ft | 503 kts | 306° |
| 2026-05-01 13:47 | 11.82298 | 68.98852 | 29892 ft | 502 kts | 306° |
| 2026-05-01 13:47 | 11.86527 | 68.93163 | 29892 ft | 502 kts | 306° |
| 2026-05-01 13:48 | 11.90752 | 68.87476 | 29891 ft | 503 kts | 306° |
| 2026-05-01 13:48 | 11.94960 | 68.81810 | 29903 ft | 503 kts | 306° |
| 2026-05-01 13:49 | 11.99193 | 68.76108 | 29891 ft | 503 kts | 306° |
| 2026-05-01 13:49 | 12.03412 | 68.70419 | 29893 ft | 502 kts | 306° |
| 2026-05-01 13:50 | 12.07627 | 68.64732 | 29892 ft | 502 kts | 306° |
| 2026-05-01 13:50 | 12.11824 | 68.59068 | 29892 ft | 502 kts | 306° |
| 2026-05-01 13:51 | 12.16038 | 68.53377 | 29890 ft | 501 kts | 306° |
| 2026-05-01 13:51 | 12.20249 | 68.47686 | 29887 ft | 501 kts | 306° |
| 2026-05-01 13:52 | 12.24460 | 68.41991 | 29889 ft | 501 kts | 306° |
| 2026-05-01 13:52 | 12.28630 | 68.36350 | 29894 ft | 500 kts | 306° |
| 2026-05-01 13:53 | 12.32818 | 68.30679 | 29890 ft | 500 kts | 306° |
| 2026-05-01 13:53 | 12.39099 | 68.22170 | 29891 ft | 499 kts | 306° |
| 2026-05-01 13:54 | 12.43279 | 68.16502 | 29895 ft | 499 kts | 306° |
| 2026-05-01 13:54 | 12.47460 | 68.10830 | 29888 ft | 498 kts | 306° |
| 2026-05-01 13:55 | 12.51635 | 68.05162 | 29889 ft | 498 kts | 306° |
| 2026-05-01 13:55 | 12.55694 | 67.99649 | 29889 ft | 498 kts | 306° |
| 2026-05-01 13:56 | 12.59869 | 67.93975 | 29886 ft | 498 kts | 306° |
| 2026-05-01 13:56 | 12.64033 | 67.88313 | 29891 ft | 497 kts | 306° |
| 2026-05-01 13:57 | 12.68171 | 67.82682 | 29890 ft | 497 kts | 306° |
| 2026-05-01 13:57 | 12.72328 | 67.77020 | 29890 ft | 497 kts | 306° |
| 2026-05-01 13:58 | 12.76485 | 67.71358 | 29890 ft | 497 kts | 306° |
| 2026-05-01 13:58 | 12.80644 | 67.65688 | 29891 ft | 497 kts | 306° |
| 2026-05-01 13:59 | 12.84801 | 67.60016 | 29893 ft | 497 kts | 306° |
| 2026-05-01 13:59 | 12.88923 | 67.54390 | 29889 ft | 497 kts | 306° |
| 2026-05-01 14:00 | 12.93083 | 67.48708 | 29890 ft | 497 kts | 306° |
| 2026-05-01 14:00 | 12.97244 | 67.43022 | 29891 ft | 497 kts | 306° |
| 2026-05-01 14:01 | 13.01367 | 67.37383 | 29892 ft | 498 kts | 306° |
| 2026-05-01 14:01 | 13.05523 | 67.31696 | 29885 ft | 498 kts | 306° |
| 2026-05-01 14:02 | 13.09679 | 67.26005 | 29884 ft | 498 kts | 306° |
| 2026-05-01 14:02 | 13.13835 | 67.20310 | 29885 ft | 498 kts | 305° |
| 2026-05-01 14:03 | 13.17987 | 67.14617 | 29888 ft | 498 kts | 306° |
| 2026-05-01 14:03 | 13.22114 | 67.08956 | 29889 ft | 498 kts | 306° |
| 2026-05-01 14:04 | 13.26267 | 67.03254 | 29888 ft | 498 kts | 306° |
| 2026-05-01 14:04 | 13.30351 | 66.97644 | 29888 ft | 498 kts | 306° |
| 2026-05-01 14:05 | 13.34507 | 66.91932 | 29888 ft | 499 kts | 306° |
| 2026-05-01 14:05 | 13.38640 | 66.86247 | 29892 ft | 499 kts | 306° |
| 2026-05-01 14:06 | 13.42799 | 66.80523 | 29893 ft | 499 kts | 306° |
| 2026-05-01 14:06 | 13.46926 | 66.74839 | 29892 ft | 499 kts | 306° |
| 2026-05-01 14:07 | 13.51074 | 66.69123 | 29893 ft | 499 kts | 306° |
| 2026-05-01 14:08 | 13.57294 | 66.60544 | 29894 ft | 499 kts | 306° |
| 2026-05-01 14:08 | 13.61445 | 66.54812 | 29891 ft | 499 kts | 306° |
| 2026-05-01 14:09 | 13.65592 | 66.49085 | 29897 ft | 499 kts | 306° |
| 2026-05-01 14:09 | 13.69711 | 66.43390 | 29896 ft | 499 kts | 306° |
| 2026-05-01 14:10 | 13.73856 | 66.37658 | 29894 ft | 500 kts | 306° |
| 2026-05-01 14:10 | 13.78006 | 66.31913 | 29895 ft | 500 kts | 306° |
| 2026-05-01 14:11 | 13.82166 | 66.26151 | 29894 ft | 500 kts | 306° |
| 2026-05-01 14:11 | 13.88392 | 66.17521 | 29894 ft | 501 kts | 306° |
| 2026-05-01 14:12 | 13.92531 | 66.11777 | 29896 ft | 501 kts | 306° |
| 2026-05-01 14:12 | 13.96688 | 66.06006 | 29894 ft | 501 kts | 306° |
| 2026-05-01 14:13 | 14.00135 | 66.01217 | 29896 ft | 501 kts | 306° |
| 2026-05-01 14:13 | 14.04771 | 65.94772 | 29896 ft | 501 kts | 306° |
| 2026-05-01 14:14 | 14.08929 | 65.88988 | 29889 ft | 501 kts | 306° |
| 2026-05-01 14:14 | 14.13049 | 65.83253 | 29894 ft | 501 kts | 306° |
| 2026-05-01 14:15 | 14.17204 | 65.77464 | 29893 ft | 501 kts | 306° |
| 2026-05-01 14:15 | 14.21352 | 65.71682 | 29890 ft | 502 kts | 306° |
| 2026-05-01 14:16 | 14.25498 | 65.65898 | 29893 ft | 502 kts | 306° |
| 2026-05-01 14:16 | 14.29647 | 65.60105 | 29890 ft | 502 kts | 306° |
| 2026-05-01 14:17 | 14.33802 | 65.54300 | 29889 ft | 502 kts | 306° |
| 2026-05-01 14:17 | 14.37949 | 65.48503 | 29892 ft | 502 kts | 306° |
| 2026-05-01 14:18 | 14.42076 | 65.42731 | 29888 ft | 503 kts | 306° |
| 2026-05-01 14:18 | 14.45526 | 65.37901 | 29893 ft | 503 kts | 306° |
| 2026-05-01 14:19 | 14.50388 | 65.31092 | 29892 ft | 503 kts | 306° |
| 2026-05-01 14:19 | 14.54534 | 65.25282 | 29893 ft | 502 kts | 306° |
| 2026-05-01 14:20 | 14.61301 | 65.17096 | 29897 ft | 503 kts | 318° |
| 2026-05-01 14:21 | 14.66723 | 65.12514 | 29898 ft | 503 kts | 320° |
| 2026-05-01 14:21 | 14.72156 | 65.08011 | 29889 ft | 503 kts | 320° |
| 2026-05-01 14:22 | 14.80313 | 65.01176 | 29887 ft | 502 kts | 320° |
| 2026-05-01 14:22 | 14.85625 | 64.96694 | 29894 ft | 502 kts | 320° |
| 2026-05-01 14:23 | 14.91045 | 64.92114 | 29893 ft | 502 kts | 320° |
| 2026-05-01 14:23 | 14.96420 | 64.87573 | 29887 ft | 502 kts | 320° |
| 2026-05-01 14:24 | 15.01828 | 64.83002 | 29897 ft | 502 kts | 320° |
| 2026-05-01 14:24 | 15.07232 | 64.78431 | 29891 ft | 502 kts | 320° |
| 2026-05-01 14:25 | 15.12647 | 64.73847 | 29896 ft | 502 kts | 320° |
| 2026-05-01 14:25 | 15.18053 | 64.69269 | 29899 ft | 501 kts | 320° |
| 2026-05-01 14:26 | 15.26120 | 64.62431 | 29884 ft | 500 kts | 320° |
| 2026-05-01 14:27 | 15.31512 | 64.57856 | 29893 ft | 500 kts | 320° |
| 2026-05-01 14:27 | 15.36902 | 64.53280 | 29899 ft | 500 kts | 320° |
| 2026-05-01 14:28 | 15.44959 | 64.46433 | 29893 ft | 501 kts | 320° |
| 2026-05-01 14:28 | 15.50366 | 64.41835 | 29898 ft | 502 kts | 320° |
| 2026-05-01 14:29 | 15.55773 | 64.37233 | 29896 ft | 502 kts | 320° |
| 2026-05-01 14:30 | 15.66545 | 64.28056 | 29901 ft | 502 kts | 320° |
| 2026-05-01 14:31 | 15.74638 | 64.21153 | 29901 ft | 501 kts | 320° |
| 2026-05-01 14:31 | 15.80031 | 64.16548 | 29894 ft | 501 kts | 320° |
| 2026-05-01 14:32 | 15.85384 | 64.11974 | 29894 ft | 501 kts | 320° |
| 2026-05-01 14:32 | 15.90763 | 64.07375 | 29900 ft | 500 kts | 319° |
| 2026-05-01 14:33 | 15.96145 | 64.02771 | 29895 ft | 500 kts | 320° |
| 2026-05-01 14:33 | 16.01315 | 63.98344 | 29892 ft | 501 kts | 320° |
| 2026-05-01 14:34 | 16.06692 | 63.93737 | 29896 ft | 501 kts | 319° |
| 2026-05-01 14:34 | 16.12074 | 63.89122 | 29892 ft | 501 kts | 319° |
| 2026-05-01 14:35 | 16.17452 | 63.84509 | 29891 ft | 501 kts | 319° |
| 2026-05-01 14:35 | 16.22790 | 63.79924 | 29894 ft | 501 kts | 319° |
| 2026-05-01 14:36 | 16.28163 | 63.75307 | 29893 ft | 500 kts | 319° |
| 2026-05-01 14:36 | 16.33532 | 63.70691 | 29895 ft | 500 kts | 319° |
| 2026-05-01 14:37 | 16.38903 | 63.66068 | 29897 ft | 500 kts | 319° |
| 2026-05-01 14:37 | 16.43366 | 63.62225 | 29895 ft | 501 kts | 319° |
| 2026-05-01 14:38 | 16.48737 | 63.57596 | 29890 ft | 501 kts | 319° |
| 2026-05-01 14:38 | 16.54105 | 63.52967 | 29894 ft | 501 kts | 319° |
| 2026-05-01 14:39 | 16.59474 | 63.48335 | 29896 ft | 501 kts | 319° |
| 2026-05-01 14:39 | 16.64848 | 63.43694 | 29898 ft | 501 kts | 319° |
| 2026-05-01 14:40 | 16.70186 | 63.39080 | 29898 ft | 501 kts | 319° |
| 2026-05-01 14:40 | 16.75556 | 63.34436 | 29896 ft | 501 kts | 319° |
| 2026-05-01 14:41 | 16.80930 | 63.29784 | 29896 ft | 501 kts | 319° |
| 2026-05-01 14:41 | 16.86298 | 63.25135 | 29899 ft | 501 kts | 319° |
| 2026-05-01 14:42 | 16.91663 | 63.20487 | 29896 ft | 501 kts | 319° |
| 2026-05-01 14:42 | 16.96984 | 63.15851 | 29895 ft | 499 kts | 316° |
| 2026-05-01 14:42 | 16.99327 | 63.13212 | 29885 ft | 497 kts | 305° |
| 2026-05-01 14:43 | 17.01154 | 63.10179 | 29900 ft | 495 kts | 296° |
| 2026-05-01 14:43 | 17.03386 | 63.03475 | 29904 ft | 491 kts | 283° |
| 2026-05-01 14:44 | 17.04928 | 62.96630 | 29894 ft | 493 kts | 282° |
| 2026-05-01 14:44 | 17.07350 | 62.86135 | 29895 ft | 496 kts | 283° |
| 2026-05-01 14:45 | 17.09854 | 62.75621 | 29893 ft | 497 kts | 283° |
| 2026-05-01 14:46 | 17.11527 | 62.68610 | 29892 ft | 497 kts | 283° |
| 2026-05-01 14:46 | 17.14011 | 62.58165 | 29895 ft | 494 kts | 283° |
| 2026-05-01 14:47 | 17.15661 | 62.51205 | 29893 ft | 491 kts | 283° |
| 2026-05-01 14:48 | 17.18104 | 62.40877 | 29891 ft | 488 kts | 283° |
| 2026-05-01 14:48 | 17.20540 | 62.30555 | 29897 ft | 487 kts | 283° |
| 2026-05-01 14:49 | 17.23787 | 62.16756 | 29899 ft | 488 kts | 283° |
| 2026-05-01 14:50 | 17.27015 | 62.02996 | 29896 ft | 488 kts | 283° |
| 2026-05-01 14:51 | 17.29408 | 61.92768 | 29896 ft | 489 kts | 283° |
| 2026-05-01 14:52 | 17.31826 | 61.82405 | 29896 ft | 488 kts | 282° |
| 2026-05-01 14:53 | 17.34231 | 61.72076 | 29897 ft | 486 kts | 282° |
| 2026-05-01 14:53 | 17.35817 | 61.65249 | 29899 ft | 485 kts | 282° |
| 2026-05-01 14:54 | 17.37409 | 61.58384 | 29898 ft | 485 kts | 282° |
| 2026-05-01 14:54 | 17.38998 | 61.51518 | 29895 ft | 485 kts | 282° |
| 2026-05-01 14:55 | 17.40585 | 61.44652 | 29895 ft | 485 kts | 282° |
| 2026-05-01 14:55 | 17.42169 | 61.37790 | 29895 ft | 485 kts | 282° |
| 2026-05-01 14:56 | 17.43744 | 61.30955 | 29895 ft | 485 kts | 282° |
| 2026-05-01 14:56 | 17.45325 | 61.24080 | 29897 ft | 486 kts | 282° |
| 2026-05-01 14:57 | 17.46905 | 61.17198 | 29897 ft | 486 kts | 282° |
| 2026-05-01 14:57 | 17.49279 | 61.06839 | 29904 ft | 487 kts | 282° |
| 2026-05-01 14:58 | 17.50853 | 60.99958 | 29894 ft | 487 kts | 282° |
| 2026-05-01 14:58 | 17.52402 | 60.93171 | 29894 ft | 487 kts | 282° |
| 2026-05-01 14:59 | 17.53967 | 60.86305 | 29895 ft | 487 kts | 282° |
| 2026-05-01 14:59 | 17.55539 | 60.79398 | 29895 ft | 487 kts | 282° |
| 2026-05-01 15:00 | 17.57890 | 60.69042 | 29897 ft | 487 kts | 282° |
| 2026-05-01 15:01 | 17.59454 | 60.62142 | 29896 ft | 487 kts | 282° |
| 2026-05-01 15:01 | 17.61017 | 60.55230 | 29894 ft | 487 kts | 282° |
| 2026-05-01 15:02 | 17.62577 | 60.48321 | 29894 ft | 487 kts | 282° |
| 2026-05-01 15:02 | 17.64128 | 60.41443 | 29889 ft | 488 kts | 282° |
| 2026-05-01 15:03 | 17.65686 | 60.34520 | 29892 ft | 488 kts | 282° |
| 2026-05-01 15:03 | 17.67243 | 60.27593 | 29891 ft | 489 kts | 282° |
| 2026-05-01 15:04 | 17.68803 | 60.20639 | 29895 ft | 490 kts | 282° |
| 2026-05-01 15:04 | 17.70363 | 60.13674 | 29884 ft | 492 kts | 283° |
| 2026-05-01 15:05 | 17.71930 | 60.06673 | 29895 ft | 493 kts | 283° |
| 2026-05-01 15:05 | 17.73487 | 59.99831 | 29890 ft | 494 kts | 285° |
| 2026-05-01 15:06 | 17.75618 | 59.92996 | 29884 ft | 495 kts | 288° |
| 2026-05-01 15:06 | 17.77865 | 59.86155 | 29881 ft | 496 kts | 288° |
| 2026-05-01 15:07 | 17.80096 | 59.79309 | 29885 ft | 496 kts | 288° |
| 2026-05-01 15:07 | 17.82312 | 59.72442 | 29886 ft | 497 kts | 288° |
| 2026-05-01 15:08 | 17.84519 | 59.65569 | 29888 ft | 497 kts | 288° |
| 2026-05-01 15:08 | 17.86725 | 59.58689 | 29878 ft | 497 kts | 289° |
| 2026-05-01 15:09 | 17.88934 | 59.51798 | 29883 ft | 498 kts | 289° |
| 2026-05-01 15:09 | 17.91127 | 59.44948 | 29884 ft | 499 kts | 289° |
| 2026-05-01 15:10 | 17.93338 | 59.38033 | 29887 ft | 500 kts | 289° |
| 2026-05-01 15:10 | 17.96656 | 59.27638 | 29882 ft | 500 kts | 288° |
| 2026-05-01 15:11 | 17.99969 | 59.17236 | 29884 ft | 500 kts | 288° |
| 2026-05-01 15:12 | 18.02168 | 59.10321 | 29881 ft | 500 kts | 288° |
| 2026-05-01 15:12 | 18.05449 | 58.99981 | 29876 ft | 499 kts | 288° |
| 2026-05-01 15:14 | 18.10890 | 58.82794 | 29873 ft | 498 kts | 288° |
| 2026-05-01 15:14 | 18.14163 | 58.72426 | 29871 ft | 498 kts | 288° |
| 2026-05-01 15:15 | 18.18503 | 58.58646 | 29871 ft | 498 kts | 288° |
| 2026-05-01 15:16 | 18.22848 | 58.44813 | 29872 ft | 498 kts | 288° |
| 2026-05-01 15:18 | 18.28265 | 58.27513 | 29869 ft | 496 kts | 288° |
| 2026-05-01 15:19 | 18.32567 | 58.13734 | 29861 ft | 496 kts | 288° |
| 2026-05-01 15:19 | 18.35789 | 58.03392 | 29857 ft | 496 kts | 288° |
| 2026-05-01 15:20 | 18.38942 | 57.93217 | 29863 ft | 496 kts | 287° |
| 2026-05-01 15:21 | 18.41056 | 57.86308 | 29862 ft | 495 kts | 287° |
| 2026-05-01 15:21 | 18.43171 | 57.79393 | 29863 ft | 495 kts | 287° |
| 2026-05-01 15:22 | 18.46339 | 57.69036 | 29858 ft | 495 kts | 287° |
| 2026-05-01 15:22 | 18.48455 | 57.62111 | 29859 ft | 495 kts | 287° |
| 2026-05-01 15:23 | 18.50559 | 57.55216 | 29852 ft | 495 kts | 287° |
| 2026-05-01 15:23 | 18.52660 | 57.48320 | 29842 ft | 494 kts | 287° |
| 2026-05-01 15:24 | 18.54402 | 57.42594 | 29839 ft | 493 kts | 287° |
| 2026-05-01 15:24 | 18.56844 | 57.34556 | 29840 ft | 492 kts | 287° |
| 2026-05-01 15:25 | 18.58574 | 57.28855 | 29832 ft | 492 kts | 287° |
| 2026-05-01 15:25 | 18.60662 | 57.21962 | 29831 ft | 492 kts | 287° |
| 2026-05-01 15:26 | 18.62745 | 57.15076 | 29835 ft | 493 kts | 287° |
| 2026-05-01 15:26 | 18.64815 | 57.08225 | 29830 ft | 493 kts | 287° |
| 2026-05-01 15:27 | 18.66900 | 57.01313 | 29834 ft | 493 kts | 287° |
| 2026-05-01 15:28 | 18.69978 | 56.91091 | 29831 ft | 494 kts | 287° |
| 2026-05-01 15:28 | 18.72051 | 56.84195 | 29839 ft | 494 kts | 287° |
| 2026-05-01 15:29 | 18.75151 | 56.73862 | 29832 ft | 493 kts | 287° |
| 2026-05-01 15:30 | 18.79274 | 56.60084 | 29834 ft | 493 kts | 287° |
| 2026-05-01 15:31 | 18.85436 | 56.39417 | 29837 ft | 493 kts | 287° |
| 2026-05-01 15:32 | 18.89535 | 56.25618 | 29830 ft | 493 kts | 286° |
| 2026-05-01 15:34 | 18.95665 | 56.04908 | 30737 ft | 486 kts | 286° |